createdAt,value
2019-03-06T00:00:43.518Z,60.87
2019-03-06T00:03:12.532Z,61.03
2019-03-06T00:05:41.349Z,61.06
2019-03-06T00:08:09.956Z,61.30
2019-03-06T00:10:38.648Z,61.30
2019-03-06T00:13:07.355Z,61.67
2019-03-06T00:15:35.932Z,62.13
2019-03-06T00:18:05.237Z,62.09
2019-03-06T00:20:35.511Z,62.10
2019-03-06T00:23:04.473Z,62.01
2019-03-06T00:25:33.096Z,62.44
2019-03-06T00:28:01.676Z,62.36
2019-03-06T00:30:30.710Z,62.67
2019-03-06T00:32:59.342Z,62.31
2019-03-06T00:35:33.315Z,62.02
2019-03-06T00:38:01.969Z,62.28
2019-03-06T00:40:50.369Z,62.61
2019-03-06T00:43:19.137Z,62.59
2019-03-06T00:45:47.970Z,62.93
2019-03-06T00:48:16.619Z,63.14
2019-03-06T00:50:45.654Z,62.94
2019-03-06T00:53:14.203Z,63.11
2019-03-06T00:55:42.768Z,63.16
2019-03-06T00:58:11.426Z,63.18
2019-03-06T01:00:40.053Z,62.84
2019-03-06T01:03:09.152Z,63.76
2019-03-06T01:05:37.815Z,63.28
2019-03-06T01:08:06.440Z,62.88
2019-03-06T01:10:35.048Z,63.27
2019-03-06T01:13:03.731Z,63.84
2019-03-06T01:15:32.556Z,63.20
2019-03-06T01:18:01.186Z,63.20
2019-03-06T01:20:30.053Z,62.92
2019-03-06T01:22:58.685Z,63.58
2019-03-06T01:25:27.240Z,63.62
2019-03-06T01:27:55.952Z,63.72
2019-03-06T01:30:25.994Z,63.37
2019-03-06T01:32:58.171Z,63.52
2019-03-06T01:35:46.207Z,63.69
2019-03-06T01:38:16.476Z,63.69
2019-03-06T01:40:46.722Z,63.48
2019-03-06T01:43:19.719Z,63.57
2019-03-06T01:45:48.399Z,63.77
2019-03-06T01:48:17.159Z,63.48
2019-03-06T01:50:45.818Z,63.53
2019-03-06T01:53:14.554Z,63.17
2019-03-06T01:55:43.126Z,63.65
2019-03-06T01:58:11.785Z,63.46
2019-03-06T02:00:40.780Z,63.74
2019-03-06T02:03:09.398Z,63.59
2019-03-06T02:05:37.998Z,63.62
2019-03-06T02:08:07.021Z,63.71
2019-03-06T02:10:35.643Z,63.72
2019-03-06T02:13:05.379Z,63.60
2019-03-06T02:15:33.943Z,63.57
2019-03-06T02:18:02.574Z,63.58
2019-03-06T02:20:31.238Z,63.82
2019-03-06T02:22:59.860Z,63.79
2019-03-06T02:25:28.676Z,63.99
2019-03-06T02:27:57.265Z,63.85
2019-03-06T02:30:26.602Z,63.98
2019-03-06T02:32:55.322Z,64.10
2019-03-06T02:35:23.979Z,64.22
2019-03-06T02:37:52.831Z,63.47
2019-03-06T02:40:21.457Z,63.76
2019-03-06T02:42:50.062Z,64.17
2019-03-06T02:45:20.727Z,63.76
2019-03-06T02:47:49.466Z,63.94
2019-03-06T02:50:19.226Z,64.10
2019-03-06T02:52:47.832Z,64.06
2019-03-06T02:55:17.767Z,63.92
2019-03-06T02:57:57.266Z,63.79
2019-03-06T03:00:45.672Z,64.16
2019-03-06T03:03:18.680Z,64.15
2019-03-06T03:05:48.929Z,64.17
2019-03-06T03:08:17.553Z,64.17
2019-03-06T03:10:46.490Z,63.83
2019-03-06T03:13:15.118Z,63.73
2019-03-06T03:15:43.739Z,63.77
2019-03-06T03:18:12.396Z,63.83
2019-03-06T03:20:41.011Z,63.62
2019-03-06T03:23:10.110Z,63.43
2019-03-06T03:25:38.771Z,63.28
2019-03-06T03:28:07.488Z,63.28
2019-03-06T03:30:36.114Z,63.20
2019-03-06T03:33:04.877Z,63.14
2019-03-06T03:35:33.527Z,63.22
2019-03-06T03:38:02.099Z,63.19
2019-03-06T03:40:30.695Z,63.06
2019-03-06T03:42:59.392Z,62.90
2019-03-06T03:45:28.013Z,62.91
2019-03-06T03:47:56.776Z,62.75
2019-03-06T03:50:25.821Z,62.81
2019-03-06T03:52:54.443Z,62.80
2019-03-06T03:55:23.111Z,62.61
2019-03-06T03:57:51.655Z,62.61
2019-03-06T04:00:24.355Z,62.50
2019-03-06T04:02:53.298Z,62.67
2019-03-06T04:05:21.846Z,62.62
2019-03-06T04:07:50.342Z,62.51
2019-03-06T04:10:19.009Z,62.54
2019-03-06T04:12:47.646Z,62.42
2019-03-06T04:15:17.874Z,62.40
2019-03-06T04:17:46.516Z,62.44
2019-03-06T04:20:16.381Z,62.46
2019-03-06T04:22:45.104Z,62.61
2019-03-06T04:25:14.216Z,62.55
2019-03-06T04:27:43.754Z,62.48
2019-03-06T04:30:19.478Z,62.46
2019-03-06T04:32:48.078Z,62.48
2019-03-06T04:35:19.574Z,62.54
2019-03-06T04:37:48.248Z,62.52
2019-03-06T04:40:17.347Z,62.72
2019-03-06T04:42:46.014Z,62.64
2019-03-06T04:45:16.749Z,62.77
2019-03-06T04:47:45.659Z,62.94
2019-03-06T04:50:15.087Z,62.78
2019-03-06T04:52:43.937Z,62.91
2019-03-06T04:55:13.967Z,62.90
2019-03-06T04:57:42.531Z,62.86
2019-03-06T05:00:19.105Z,62.85
2019-03-06T05:02:47.739Z,62.67
2019-03-06T05:05:16.572Z,62.81
2019-03-06T05:07:45.193Z,62.88
2019-03-06T05:10:14.900Z,62.88
2019-03-06T05:12:43.450Z,63.02
2019-03-06T05:15:14.421Z,63.43
2019-03-06T05:17:44.558Z,63.63
2019-03-06T05:20:13.217Z,63.85
2019-03-06T05:22:41.811Z,64.02
2019-03-06T05:25:10.437Z,64.41
2019-03-06T05:27:39.011Z,64.70
2019-03-06T05:30:15.862Z,65.01
2019-03-06T05:32:46.990Z,65.36
2019-03-06T05:35:33.436Z,65.69
2019-03-06T05:38:22.752Z,65.81
2019-03-06T05:40:51.415Z,65.92
2019-03-06T05:43:19.934Z,66.44
2019-03-06T05:45:48.733Z,66.73
2019-03-06T05:48:17.388Z,66.72
2019-03-06T05:50:46.017Z,66.61
2019-03-06T05:53:14.657Z,66.89
2019-03-06T05:55:43.244Z,66.95
2019-03-06T05:58:12.181Z,67.24
2019-03-06T06:00:40.808Z,67.63
2019-03-06T06:03:09.461Z,67.48
2019-03-06T06:05:38.025Z,67.50
2019-03-06T06:08:06.672Z,67.86
2019-03-06T06:10:35.558Z,67.39
2019-03-06T06:13:04.509Z,67.62
2019-03-06T06:15:33.135Z,67.28
2019-03-06T06:18:01.648Z,66.99
2019-03-06T06:20:30.267Z,66.80
2019-03-06T06:23:12.726Z,66.69
2019-03-06T06:25:41.289Z,66.90
2019-03-06T06:28:09.915Z,66.48
2019-03-06T06:30:39.357Z,66.30
2019-03-06T06:33:08.190Z,66.31
2019-03-06T06:35:36.886Z,66.17
2019-03-06T06:38:05.553Z,66.13
2019-03-06T06:40:35.680Z,65.87
2019-03-06T06:43:04.661Z,65.45
2019-03-06T06:45:33.613Z,65.40
2019-03-06T06:48:10.587Z,65.40
2019-03-06T06:51:00.997Z,66.04
2019-03-06T06:53:29.875Z,65.22
2019-03-06T06:56:25.715Z,64.81
2019-03-06T06:59:15.160Z,63.48
2019-03-06T07:02:03.423Z,63.12
2019-03-06T07:04:51.260Z,62.74
2019-03-06T07:07:33.280Z,62.11
2019-03-06T07:10:09.165Z,62.00
2019-03-06T07:12:42.110Z,61.25
2019-03-06T07:15:12.780Z,60.72
2019-03-06T07:17:43.046Z,60.77
2019-03-06T07:20:13.431Z,60.64
2019-03-06T07:22:43.887Z,58.81
2019-03-06T07:25:14.310Z,57.94
2019-03-06T07:27:53.431Z,55.06
2019-03-06T07:30:23.703Z,55.04
2019-03-06T07:33:11.992Z,52.81
2019-03-06T07:35:56.564Z,52.84
2019-03-06T07:38:25.678Z,52.64
2019-03-06T07:41:12.422Z,52.10
2019-03-06T07:44:01.133Z,52.76
2019-03-06T07:46:49.401Z,51.79
2019-03-06T07:49:44.822Z,51.04
2019-03-06T07:52:08.171Z,49.73
2019-03-06T07:54:44.118Z,49.04
2019-03-06T07:57:14.385Z,48.50
2019-03-06T07:59:43.291Z,48.47
2019-03-06T08:02:17.875Z,48.23
2019-03-06T08:04:54.487Z,47.58
2019-03-06T08:07:23.280Z,48.40
2019-03-06T08:09:52.015Z,47.48
2019-03-06T08:12:25.257Z,47.13
2019-03-06T08:14:55.583Z,46.67
2019-03-06T08:17:41.678Z,45.24
2019-03-06T08:20:30.256Z,45.53
2019-03-06T08:23:00.443Z,45.04
2019-03-06T08:25:47.602Z,44.48
2019-03-06T08:28:16.247Z,44.52
2019-03-06T08:30:58.516Z,43.85
2019-03-06T08:33:27.499Z,44.36
2019-03-06T08:35:56.149Z,44.80
2019-03-06T08:38:24.870Z,45.41
2019-03-06T08:40:53.440Z,44.05
2019-03-06T08:43:22.003Z,43.19
2019-03-06T08:46:08.963Z,43.79
2019-03-06T08:48:53.748Z,43.60
2019-03-06T08:51:40.270Z,42.12
2019-03-06T08:54:19.525Z,41.46
2019-03-06T08:56:52.323Z,41.23
2019-03-06T08:59:31.545Z,41.20
2019-03-06T09:02:04.779Z,40.23
2019-03-06T09:04:52.363Z,38.93
2019-03-06T09:07:22.676Z,38.77
2019-03-06T09:09:52.985Z,37.88
2019-03-06T09:12:32.335Z,36.97
2019-03-06T09:15:17.637Z,37.54
2019-03-06T09:18:09.052Z,37.93
2019-03-06T09:20:43.917Z,38.04
2019-03-06T09:23:22.576Z,37.74
2019-03-06T09:26:02.435Z,37.66
2019-03-06T09:28:32.672Z,37.34
2019-03-06T09:31:19.196Z,37.01
2019-03-06T09:34:04.496Z,36.10
2019-03-06T09:36:37.605Z,35.46
2019-03-06T09:39:26.768Z,36.07
2019-03-06T09:41:57.066Z,36.98
2019-03-06T09:44:29.922Z,37.59
2019-03-06T09:47:00.218Z,37.86
2019-03-06T09:49:30.411Z,37.55
2019-03-06T09:52:03.464Z,36.62
2019-03-06T09:54:42.894Z,36.92
2019-03-06T09:57:24.977Z,36.64
2019-03-06T09:59:55.282Z,37.82
2019-03-06T10:02:28.625Z,36.47
2019-03-06T10:05:01.458Z,35.69
2019-03-06T10:07:31.646Z,34.89
2019-03-06T10:10:18.760Z,34.21
2019-03-06T10:12:49.048Z,34.36
2019-03-06T10:15:25.553Z,34.73
2019-03-06T10:17:56.551Z,34.01
2019-03-06T10:20:25.973Z,33.72
2019-03-06T10:22:59.297Z,33.25
2019-03-06T10:25:30.122Z,32.26
2019-03-06T10:28:05.746Z,30.62
2019-03-06T10:30:26.438Z,30.06
2019-03-06T10:32:55.519Z,29.55
2019-03-06T10:35:24.234Z,30.63
2019-03-06T10:37:53.139Z,31.26
2019-03-06T10:40:21.767Z,30.96
2019-03-06T10:42:50.838Z,30.55
2019-03-06T10:45:20.009Z,29.38
2019-03-06T10:47:48.832Z,29.48
2019-03-06T10:50:26.802Z,28.91
2019-03-06T10:52:50.644Z,28.12
2019-03-06T10:55:20.209Z,29.49
2019-03-06T10:57:49.303Z,29.69
2019-03-06T11:00:31.071Z,27.91
2019-03-06T11:03:00.070Z,27.21
2019-03-06T11:05:33.473Z,27.23
2019-03-06T11:08:03.128Z,28.76
2019-03-06T11:10:33.654Z,29.32
2019-03-06T11:13:04.544Z,29.81
2019-03-06T11:15:33.609Z,28.91
2019-03-06T11:18:02.422Z,29.67
2019-03-06T11:20:36.006Z,28.92
2019-03-06T11:23:11.900Z,27.97
2019-03-06T11:25:41.337Z,27.12
2019-03-06T11:28:12.293Z,28.03
2019-03-06T11:30:47.158Z,27.84
2019-03-06T11:33:16.294Z,28.81
2019-03-06T11:35:45.720Z,28.25
2019-03-06T11:38:14.952Z,27.83
2019-03-06T11:40:43.609Z,27.42
2019-03-06T11:43:12.826Z,26.29
2019-03-06T11:45:42.490Z,26.07
2019-03-06T11:48:12.409Z,25.92
2019-03-06T11:50:41.356Z,25.44
2019-03-06T11:53:10.291Z,24.89
2019-03-06T11:55:38.921Z,23.94
2019-03-06T11:58:10.086Z,23.79
2019-03-06T12:00:42.119Z,24.23
2019-03-06T12:03:11.021Z,24.98
2019-03-06T12:05:39.962Z,24.45
2019-03-06T12:08:14.447Z,25.42
2019-03-06T12:10:43.727Z,25.41
2019-03-06T12:13:14.461Z,24.70
2019-03-06T12:15:45.450Z,23.27
2019-03-06T12:18:14.980Z,23.05
2019-03-06T12:20:43.998Z,22.95
2019-03-06T12:23:12.661Z,23.30
2019-03-06T12:25:41.989Z,23.73
2019-03-06T12:28:12.335Z,24.12
2019-03-06T12:30:41.403Z,24.09
2019-03-06T12:33:11.529Z,23.50
2019-03-06T12:35:40.156Z,22.42
2019-03-06T12:38:10.806Z,22.81
2019-03-06T12:40:40.115Z,22.16
2019-03-06T12:43:08.736Z,21.49
2019-03-06T12:45:37.805Z,21.76
2019-03-06T12:48:12.379Z,21.99
2019-03-06T12:50:41.904Z,22.28
2019-03-06T12:53:10.589Z,22.24
2019-03-06T12:55:39.293Z,22.03
2019-03-06T12:58:07.907Z,21.64
2019-03-06T13:00:37.147Z,22.50
2019-03-06T13:03:06.000Z,23.04
2019-03-06T13:05:34.728Z,23.55
2019-03-06T13:08:03.492Z,23.07
2019-03-06T13:10:32.042Z,22.04
2019-03-06T13:13:00.668Z,21.19
2019-03-06T13:15:29.593Z,21.06
2019-03-06T13:17:58.221Z,20.84
2019-03-06T13:20:26.856Z,20.75
2019-03-06T13:22:55.543Z,20.73
2019-03-06T13:25:25.280Z,21.08
2019-03-06T13:27:55.291Z,21.25
2019-03-06T13:30:26.602Z,22.08
2019-03-06T13:32:56.865Z,21.74
2019-03-06T13:35:27.080Z,20.94
2019-03-06T13:37:55.740Z,20.51
2019-03-06T13:40:24.371Z,20.25
2019-03-06T13:42:53.105Z,20.57
2019-03-06T13:45:22.086Z,20.78
2019-03-06T13:47:51.095Z,20.65
2019-03-06T13:50:19.951Z,20.85
2019-03-06T13:52:48.604Z,21.77
2019-03-06T13:55:17.921Z,21.59
2019-03-06T13:57:47.441Z,21.85
2019-03-06T14:00:25.826Z,21.50
2019-03-06T14:02:54.469Z,22.22
2019-03-06T14:05:23.939Z,22.97
2019-03-06T14:07:56.416Z,22.28
2019-03-06T14:10:26.797Z,22.19
2019-03-06T14:12:55.617Z,22.42
2019-03-06T14:15:24.947Z,22.22
2019-03-06T14:17:53.659Z,22.18
2019-03-06T14:20:25.477Z,21.73
2019-03-06T14:22:54.534Z,21.35
2019-03-06T14:25:23.945Z,21.79
2019-03-06T14:27:52.835Z,21.40
2019-03-06T14:30:29.343Z,21.52
2019-03-06T14:32:58.664Z,22.35
2019-03-06T14:35:28.503Z,22.90
2019-03-06T14:37:57.200Z,22.49
2019-03-06T14:40:33.861Z,22.56
2019-03-06T14:43:05.234Z,22.13
2019-03-06T14:45:34.268Z,21.45
2019-03-06T14:48:02.901Z,21.80
2019-03-06T14:50:31.513Z,21.73
2019-03-06T14:53:00.928Z,21.57
2019-03-06T14:55:29.539Z,21.75
2019-03-06T14:57:58.134Z,21.42
2019-03-06T15:00:26.775Z,21.75
2019-03-06T15:02:55.400Z,22.23
2019-03-06T15:05:25.365Z,22.05
2019-03-06T15:07:54.260Z,21.96
2019-03-06T15:10:23.269Z,21.90
2019-03-06T15:12:51.997Z,22.31
2019-03-06T15:15:21.429Z,22.94
2019-03-06T15:17:50.065Z,22.72
2019-03-06T15:20:23.771Z,23.29
2019-03-06T15:22:54.208Z,23.41
2019-03-06T15:25:27.659Z,22.88
2019-03-06T15:27:56.589Z,22.93
2019-03-06T15:30:25.322Z,22.79
2019-03-06T15:32:53.956Z,22.94
2019-03-06T15:35:23.402Z,22.69
2019-03-06T15:37:52.245Z,22.38
2019-03-06T15:40:31.095Z,21.83
2019-03-06T15:43:01.508Z,21.52
2019-03-06T15:45:34.045Z,22.00
2019-03-06T15:48:02.912Z,22.36
2019-03-06T15:50:31.626Z,23.13
2019-03-06T15:53:00.327Z,23.85
2019-03-06T15:55:29.915Z,25.03
2019-03-06T15:57:58.540Z,25.27
2019-03-06T16:00:45.777Z,25.56
2019-03-06T16:03:09.755Z,26.35
2019-03-06T16:05:38.561Z,27.17
2019-03-06T16:08:09.793Z,27.70
2019-03-06T16:10:39.132Z,28.35
2019-03-06T16:13:08.265Z,28.81
2019-03-06T16:15:37.650Z,28.98
2019-03-06T16:18:08.960Z,29.62
2019-03-06T16:20:38.191Z,30.46
2019-03-06T16:23:08.240Z,30.88
2019-03-06T16:25:40.019Z,31.42
2019-03-06T16:28:07.663Z,31.76
2019-03-06T16:30:36.256Z,32.20
2019-03-06T16:33:04.924Z,32.75
2019-03-06T16:35:33.585Z,32.96
2019-03-06T16:38:02.220Z,33.63
2019-03-06T16:40:31.269Z,34.05
2019-03-06T16:43:00.174Z,34.08
2019-03-06T16:45:30.213Z,34.33
2019-03-06T16:48:00.516Z,34.87
2019-03-06T16:50:29.362Z,35.16
2019-03-06T16:52:58.053Z,35.47
2019-03-06T16:55:27.622Z,35.71
2019-03-06T16:57:57.363Z,35.87
2019-03-06T17:00:31.662Z,36.29
2019-03-06T17:03:05.438Z,36.51
2019-03-06T17:05:34.413Z,36.58
2019-03-06T17:08:03.746Z,36.77
2019-03-06T17:10:34.341Z,36.85
2019-03-06T17:13:03.470Z,36.95
2019-03-06T17:15:32.773Z,37.17
2019-03-06T17:18:02.072Z,37.16
2019-03-06T17:20:37.854Z,37.09
2019-03-06T17:23:06.917Z,37.17
2019-03-06T17:25:35.979Z,37.16
2019-03-06T17:28:04.935Z,37.11
2019-03-06T17:30:37.416Z,37.20
2019-03-06T17:33:10.902Z,37.26
2019-03-06T17:35:40.447Z,37.37
2019-03-06T17:38:14.029Z,37.35
2019-03-06T17:40:43.398Z,37.54
2019-03-06T17:43:13.047Z,37.61
2019-03-06T17:45:42.377Z,37.70
2019-03-06T17:48:11.370Z,37.95
2019-03-06T17:50:40.023Z,38.20
2019-03-06T17:53:09.068Z,38.27
2019-03-06T17:55:37.747Z,38.33
2019-03-06T17:58:06.682Z,38.59
2019-03-06T18:00:40.260Z,38.84
2019-03-06T18:03:10.771Z,38.83
2019-03-06T18:05:39.487Z,38.94
2019-03-06T18:08:08.137Z,39.02
2019-03-06T18:10:36.838Z,39.18
2019-03-06T18:13:05.869Z,39.35
2019-03-06T18:15:34.506Z,39.72
2019-03-06T18:18:03.374Z,39.58
2019-03-06T18:20:31.992Z,39.63
2019-03-06T18:23:00.724Z,39.72
2019-03-06T18:25:29.327Z,39.67
2019-03-06T18:27:57.971Z,39.90
2019-03-06T18:30:27.964Z,39.99
2019-03-06T18:32:56.631Z,40.00
2019-03-06T18:35:25.301Z,39.80
2019-03-06T18:37:54.020Z,39.91
2019-03-06T18:40:24.087Z,39.94
2019-03-06T18:42:54.764Z,40.08
2019-03-06T18:45:23.440Z,40.18
2019-03-06T18:47:52.320Z,40.21
2019-03-06T18:50:24.690Z,40.09
2019-03-06T18:52:53.281Z,40.20
2019-03-06T18:55:22.271Z,40.23
2019-03-06T18:57:51.526Z,40.27
2019-03-06T19:00:33.739Z,40.31
2019-03-06T19:03:02.888Z,40.36
2019-03-06T19:05:31.532Z,40.37
2019-03-06T19:08:00.295Z,40.33
2019-03-06T19:10:28.939Z,40.41
2019-03-06T19:12:57.590Z,40.46
2019-03-06T19:15:27.480Z,40.58
2019-03-06T19:17:56.224Z,40.66
2019-03-06T19:20:25.495Z,40.87
2019-03-06T19:22:54.752Z,40.91
2019-03-06T19:25:24.187Z,41.03
2019-03-06T19:27:52.904Z,41.31
2019-03-06T19:30:27.967Z,41.43
2019-03-06T19:32:56.897Z,41.50
2019-03-06T19:35:27.806Z,41.49
2019-03-06T19:37:56.532Z,41.51
2019-03-06T19:40:25.827Z,41.59
2019-03-06T19:42:54.487Z,41.71
2019-03-06T19:45:24.529Z,41.75
2019-03-06T19:47:53.173Z,41.82
2019-03-06T19:50:25.623Z,41.81
2019-03-06T19:52:54.855Z,41.78
2019-03-06T19:55:24.123Z,41.74
2019-03-06T19:58:00.986Z,41.84
2019-03-06T20:00:31.108Z,41.78
2019-03-06T20:03:00.783Z,41.79
2019-03-06T20:05:35.237Z,41.54
2019-03-06T20:08:07.484Z,41.55
2019-03-06T20:10:36.518Z,41.39
2019-03-06T20:13:05.786Z,41.32
2019-03-06T20:15:34.417Z,41.30
2019-03-06T20:18:03.517Z,41.33
2019-03-06T20:20:32.470Z,41.45
2019-03-06T20:23:01.354Z,41.40
2019-03-06T20:25:30.138Z,41.28
2019-03-06T20:27:58.812Z,41.35
2019-03-06T20:30:27.855Z,41.35
2019-03-06T20:32:57.216Z,41.37
2019-03-06T20:35:26.544Z,41.39
2019-03-06T20:37:55.624Z,41.32
2019-03-06T20:40:24.417Z,41.33
2019-03-06T20:42:53.069Z,41.36
2019-03-06T20:45:22.181Z,41.46
2019-03-06T20:47:50.903Z,41.40
2019-03-06T20:50:20.625Z,41.16
2019-03-06T20:52:50.347Z,40.99
2019-03-06T20:55:19.420Z,40.88
2019-03-06T20:57:48.294Z,40.80
2019-03-06T21:00:19.991Z,40.73
2019-03-06T21:02:49.021Z,40.71
2019-03-06T21:05:17.909Z,40.61
2019-03-06T21:07:46.558Z,40.80
2019-03-06T21:10:17.278Z,40.79
2019-03-06T21:12:45.997Z,40.81
2019-03-06T21:15:20.224Z,40.78
2019-03-06T21:17:48.849Z,40.76
2019-03-06T21:20:21.592Z,40.87
2019-03-06T21:22:50.827Z,40.79
2019-03-06T21:25:20.457Z,40.77
2019-03-06T21:27:49.388Z,40.81
2019-03-06T21:30:29.432Z,40.83
2019-03-06T21:32:58.286Z,40.77
2019-03-06T21:35:27.072Z,40.85
2019-03-06T21:37:55.752Z,40.91
2019-03-06T21:40:24.874Z,40.84
2019-03-06T21:42:53.518Z,41.01
2019-03-06T21:45:22.356Z,41.08
2019-03-06T21:47:51.047Z,41.05
2019-03-06T21:50:20.437Z,41.20
2019-03-06T21:52:49.277Z,41.18
2019-03-06T21:55:18.214Z,41.07
2019-03-06T21:57:47.217Z,40.83
2019-03-06T22:00:20.923Z,40.74
2019-03-06T22:02:49.644Z,40.63
2019-03-06T22:05:18.390Z,40.50
2019-03-06T22:07:50.183Z,40.48
2019-03-06T22:10:18.363Z,40.63
2019-03-06T22:12:47.014Z,40.99
2019-03-06T22:15:19.500Z,41.09
2019-03-06T22:17:48.173Z,41.22
2019-03-06T22:20:17.051Z,41.21
2019-03-06T22:22:45.833Z,41.11
2019-03-06T22:25:18.171Z,41.04
2019-03-06T22:27:47.220Z,40.88
2019-03-06T22:30:22.654Z,40.90
2019-03-06T22:32:51.269Z,40.82
2019-03-06T22:35:20.105Z,40.83
2019-03-06T22:37:48.855Z,40.79
2019-03-06T22:40:19.378Z,40.91
2019-03-06T22:42:48.128Z,41.05
2019-03-06T22:45:18.334Z,41.22
2019-03-06T22:47:47.119Z,41.24
2019-03-06T22:50:16.952Z,41.41
2019-03-06T22:52:45.701Z,41.50
2019-03-06T22:55:20.934Z,41.70
2019-03-06T22:57:49.549Z,41.85
2019-03-06T23:00:29.827Z,41.94
2019-03-06T23:02:58.956Z,42.10
2019-03-06T23:05:29.700Z,42.20
2019-03-06T23:07:58.377Z,42.40
2019-03-06T23:10:27.105Z,42.68
2019-03-06T23:12:55.822Z,42.74
2019-03-06T23:15:24.527Z,42.87
2019-03-06T23:17:53.173Z,43.03
2019-03-06T23:20:21.867Z,43.09
2019-03-06T23:22:50.558Z,43.22
2019-03-06T23:25:19.086Z,43.53
2019-03-06T23:27:47.772Z,43.52
2019-03-06T23:30:17.168Z,43.50
2019-03-06T23:32:46.277Z,43.45
2019-03-06T23:35:14.911Z,43.73
2019-03-06T23:37:43.562Z,43.60
2019-03-06T23:40:12.894Z,43.60
2019-03-06T23:42:41.533Z,43.60
2019-03-06T23:45:12.204Z,43.69
2019-03-06T23:47:41.104Z,43.60
2019-03-06T23:50:11.477Z,43.45
2019-03-06T23:52:57.783Z,43.37
2019-03-06T23:55:28.052Z,43.32
2019-03-06T23:57:57.275Z,43.28
